Friday, February 23, 2018, 1:44 PM EST
Back to Local

KACY, Atlantic City International

Location: Absecon, NJ, United States Lat: 39.467
Local Time: 1:44 PM EST (18:44 GMT) Lon: -74.583
Time Zone: US/Eastern Elev: 75 ft

Show me the last for .
Show Decoded

2018-02-23 13:06 METAR KACY 231806Z 07008KT 1 1/4SM BR OVC005 07/06 A3047 RMK AO2 T00670061 $ =
2018-02-23 12:54 METAR KACY 231754Z 06011KT 1 1/2SM BR OVC006 07/06 A3047 RMK AO2 SLP319 60026
                 T00670061 10067 20050 56026 $ =
2018-02-23 12:49 METAR KACY 231749Z 06007KT 1 1/2SM BR OVC006 07/06 A3047 RMK AO2 $ =
2018-02-23 12:26 METAR KACY 231726Z 07009KT 2SM BR OVC006 07/06 A3048 RMK AO2 TWR VIS 2 1/2
                 T00670061 $ =
2018-02-23 11:54 METAR KACY 231654Z 07009KT 10SM OVC006 07/06 A3051 RMK AO2 RAE11 SLP332 P0000
                 T00670061 $ =
2018-02-23 10:54 METAR KACY 231554Z 08008KT 5SM -RA BR BKN006 OVC026 06/06 A3055 RMK AO2 RAB10
                 SLP345 P0012 T00610056 $ =
2018-02-23 10:41 METAR KACY 231541Z 07010KT 3SM RA BR BKN006 OVC017 06/06 A3056 RMK AO2 RAB10
                 P0009 T00560056 $ =
2018-02-23 10:31 METAR KACY 231531Z 06009KT 2 1/2SM -RA BR BKN008 OVC011 06/05 A3057 RMK AO2
                 RAB10 P0009 T00560050 $ =
2018-02-23 10:17 METAR KACY 231517Z 06011KT 1 3/4SM +RA BR OVC009 06/05 A3057 RMK AO2 RAB10 P0005
                 T00560050 $ =
2018-02-23 09:54 METAR KACY 231454Z 08012KT 8SM BKN008 OVC017 06/05 A3057 RMK AO2 RAE04B11E51
                 SLP353 P0003 60014 T00560050 58006 $ =
2018-02-23 09:21 METAR KACY 231421Z 08010KT 4SM -RA BR BKN008 BKN012 OVC031 06/05 A3058 RMK AO2
                 RAE04B11 P0002 T00560050 $ =
2018-02-23 09:08 METAR KACY 231408Z 08010KT 6SM BR FEW008 BKN021 OVC033 06/04 A3058 RMK AO2 RAE04
                 P0000 T00560044 $ =
2018-02-23 08:54 METAR KACY 231354Z 08011KT 5SM RA BR BKN010 OVC016 06/05 A3058 RMK AO2
                 RAB14E30B50 SLP357 P0002 T00560050 $ =
2018-02-23 08:39 METAR KACY 231339Z 07009KT 10SM SCT009 OVC016 06/04 A3059 RMK AO2 RAB14E30 P0001
                 T00560044 $ =
2018-02-23 08:30 METAR KACY 231330Z 07010KT 10SM BKN012 OVC016 06/05 A3059 RMK AO2 RAB14E30 P0001
                 T00560050 $ =
2018-02-23 08:16 METAR KACY 231316Z 07010KT 5SM RA BR BKN008 OVC016 06/04 A3059 RMK AO2 RAB14
                 P0000 T00560044 $ =
2018-02-23 07:54 METAR KACY 231254Z 08011KT 10SM BKN010 OVC016 05/04 A3058 RMK AO2 RAB05E52
                 SLP356 P0009 T00500044 $ =
2018-02-23 07:28 METAR KACY 231228Z 08006KT 4SM -RA BR OVC011 05/04 A3059 RMK AO2 RAB05 P0003
                 T00500044 $ =
2018-02-23 06:54 METAR KACY 231154Z 07008G18KT 7SM BKN008 OVC021 05/04 A3059 RMK AO2 RAE05B27E50
                 CIG 006V010 SLP359 P0001 60002 70005 T00500044 10050 20044 55003 $ =
2018-02-23 06:14 METAR KACY 231114Z 07009KT 7SM BKN009 OVC013 05/04 A3059 RMK AO2 RAE05 CIG
                 006V011 P0000 T00500044 $ =
2018-02-23 05:54 METAR KACY 231054Z 07009KT 7SM -RA OVC011 05/04 A3059 RMK AO2 RAB07 SLP358 P0001
                 T00500039 $ =
2018-02-23 04:54 METAR KACY 230954Z 08011G21KT 10SM OVC009 05/03 A3058 RMK AO2 SLP357 T00500033 $
                 =
2018-02-23 03:54 METAR KACY 230854Z 06014KT 10SM OVC010 05/03 A3060 RMK AO2 SLP362 T00500033
                 56006 $ =
2018-02-23 02:54 METAR KACY 230754Z 06010G20KT 10SM OVC012 05/03 A3060 RMK AO2 SLP363 T00500028 $
                 =
2018-02-23 01:54 METAR KACY 230654Z 06011KT 10SM OVC012 04/03 A3060 RMK AO2 SLP362 T00440028 $ =
2018-02-23 01:21 METAR KACY 230621Z 05011KT 10SM OVC014 04/02 A3061 RMK AO2 T00440022 $ =
2018-02-23 00:54 METAR KACY 230554Z 05010KT 10SM OVC016 04/02 A3062 RMK AO2 SLP368 T00440017
                 10050 20044 50007 $ =
2018-02-22 23:54 METAR KACY 230454Z 04009G18KT 10SM OVC020 05/02 A3062 RMK AO2 SLP371 T00500017
                 401720044 $ =
2018-02-22 22:54 METAR KACY 230354Z 06010G20KT 10SM OVC018 05/02 A3061 RMK AO2 SLP365 T00500022 $
                 =
2018-02-22 22:03 METAR KACY 230303Z 06012G20KT 10SM BKN018 OVC032 05/03 A3060 RMK AO2 T00500028 $
                 =
2018-02-22 21:54 METAR KACY 230254Z 05010G21KT 10SM SCT016 OVC032 05/03 A3060 RMK AO2 SLP362
                 T00500028 53003 $ =
2018-02-22 20:54 METAR KACY 230154Z 07011KT 10SM OVC032 04/03 A3058 RMK AO2 SLP356 T00440028 $ =
2018-02-22 20:21 METAR KACY 230121Z 07014G20KT 10SM FEW016 OVC034 04/02 A3057 =
2018-02-22 19:54 METAR KACY 230054Z 07013G22KT 10SM OVC015 04/03 A3058 RMK AO2 PK WND 05028/0003
                 SLP355 T00440028 $ =
2018-02-22 19:47 METAR KACY 230047Z 07015G21KT 10SM OVC015 04/03 A3058 RMK AO2 PK WND 05028/0003
                 T00440028 $ =
2018-02-22 19:09 METAR KACY 230009Z 06016G28KT 10SM SCT009 OVC013 04/03 A3059 =
2018-02-22 18:54 METAR KACY 222354Z 06014KT 10SM BKN009 OVC015 04/03 A3059 RMK AO2 PK WND
                 04026/2306 RAB08E41 CIG 006V013 SLP358 P0001 60003 T00440033 10089 20044 50029 $
                 =
2018-02-22 18:40 METAR KACY 222340Z 06012G21KT 6SM -RA BR BKN009 OVC032 04/03 A3059 RMK AO2 PK
                 WND 04026/2306 RAB08 CIG 007V011 P0000 T00440033 $ =
2018-02-22 18:18 METAR KACY 222318Z 05013G25KT 4SM -RA BR BKN010 BKN013 OVC031 04/03 A3061 =
2018-02-22 17:54 METAR KACY 222254Z 04013G27KT 2SM BR OVC008 04/04 A3059 RMK AO2 PK WND
                 03027/2252 SFC VIS 4 RAB2156E30 CIG 005V012 SLP358 P0002 T00440039 $ =
2018-02-22 17:35 METAR KACY 222235Z 02014G22KT 2SM BR BKN006 OVC011 05/04 A3059 RMK AO2 SFC VIS 2
                 1/2 RAB2156E30 PRESRR P0002 T00500044 $ =
2018-02-22 17:28 METAR KACY 222228Z 03012G21KT 1 3/4SM -RA BR OVC008 05/04 A3059 RMK AO2 TWR VIS
                 2 RAB2156 CIG 005V012 PRESRR P0001 T00500044 $ =
2018-02-22 16:54 METAR KACY 222154Z 03011G18KT 1 1/4SM BR OVC006 06/05 A3055 RMK AO2 TWR VIS 2
                 SLP345 T00560050 $ =
2018-02-22 16:44 METAR KACY 222144Z 03012G20KT 1 1/4SM BR OVC006 06/06 A3053 RMK AO2 TWR VIS 2
                 CIG 005V009 T00560056 $ =
2018-02-22 16:34 METAR KACY 222134Z 04012KT 1 1/2SM BR OVC006 06/06 A3053 RMK AO2 TWR VIS 2
                 T00610056 $ =
2018-02-22 16:06 METAR KACY 222106Z 05012KT 1 1/4SM BR OVC006 06/06 A3051 RMK AO2 TWR VIS 2 CIG
                 005V009 T00610056 $ =
2018-02-22 15:54 METAR KACY 222054Z 04013G18KT 1 1/2SM BR OVC007 06/06 A3050 RMK AO2 TWR VIS 2
                 CIG 006V010 SLP329 T00610056 53004 $ =
2018-02-22 15:40 METAR KACY 222040Z 05014G22KT 1 1/2SM BR OVC008 06/05 A3049 RMK AO2 TWR VIS 2
                 CIG 006V012 T00610050 $ =
2018-02-22 15:29 METAR KACY 222029Z 05013G21KT 2SM BR OVC010 06/05 A3049 RMK AO2 T00610050 $ =
2018-02-22 14:54 METAR KACY 221954Z 06017G25KT 8SM OVC014 07/04 A3049 RMK AO2 PK WND 08028/1900
                 SLP324 T00720039 $ =
2018-02-22 14:43 METAR KACY 221943Z 05017G26KT 9SM OVC014 07/04 A3048 RMK AO2 PK WND 08028/1900
                 T00720039 $ =
2018-02-22 13:54 METAR KACY 221854Z 06015G21KT 10SM FEW017 OVC028 08/04 A3047 RMK AO2 PK WND
                 04028/1810 SLP319 T00830044 $ =

Support USWX by starting your Amazon purchase here.